createdAt,value
2023-04-07T00:01:52.508Z,5.83
2023-04-07T00:08:27.386Z,5.86
2023-04-07T00:10:58.647Z,5.87
2023-04-07T00:13:30.607Z,5.82
2023-04-07T00:16:01.698Z,5.81
2023-04-07T00:18:32.361Z,5.81
2023-04-07T00:21:02.954Z,5.79
2023-04-07T00:23:36.315Z,5.75
2023-04-07T00:26:07.242Z,5.60
2023-04-07T00:28:37.982Z,5.63
2023-04-07T00:31:08.698Z,5.67
2023-04-07T00:33:39.623Z,5.58
2023-04-07T00:36:10.658Z,5.61
2023-04-07T00:38:44.667Z,5.41
2023-04-07T00:41:16.035Z,5.59
2023-04-07T00:43:46.645Z,5.46
2023-04-07T00:46:17.632Z,5.46
2023-04-07T00:48:48.441Z,5.46
2023-04-07T00:51:19.651Z,5.31
2023-04-07T00:53:53.234Z,5.36
2023-04-07T00:56:24.655Z,5.28
2023-04-07T00:58:55.590Z,5.26
2023-04-07T01:01:30.794Z,5.24
2023-04-07T01:04:05.618Z,5.20
2023-04-07T01:06:46.971Z,5.20
2023-04-07T01:09:26.178Z,5.19
2023-04-07T01:12:05.455Z,5.17
2023-04-07T01:14:43.202Z,5.09
2023-04-07T01:17:38.512Z,5.17
2023-04-07T01:20:15.450Z,5.08
2023-04-07T01:22:54.160Z,5.08
2023-04-07T01:25:52.592Z,5.13
2023-04-07T01:28:43.447Z,5.11
2023-04-07T01:31:18.596Z,5.09
2023-04-07T01:33:51.367Z,5.02
2023-04-07T01:36:25.665Z,5.06
2023-04-07T01:38:57.137Z,4.98
2023-04-07T01:41:30.362Z,5.06
2023-04-07T01:44:02.660Z,5.08
2023-04-07T01:46:36.978Z,5.06
2023-04-07T01:49:08.686Z,5.05
2023-04-07T01:51:40.386Z,5.00
2023-04-07T01:54:11.849Z,4.95
2023-04-07T01:56:42.862Z,4.93
2023-04-07T01:59:13.742Z,4.87
2023-04-07T02:01:47.442Z,4.82
2023-04-07T02:04:25.065Z,4.78
2023-04-07T02:07:03.373Z,4.68
2023-04-07T02:09:43.472Z,4.74
2023-04-07T02:12:16.312Z,4.71
2023-04-07T02:15:01.570Z,4.58
2023-04-07T02:17:38.216Z,4.66
2023-04-07T02:20:11.222Z,4.66
2023-04-07T02:22:42.838Z,4.64
2023-04-07T02:25:27.761Z,4.54
2023-04-07T02:27:59.980Z,4.59
2023-04-07T02:30:31.596Z,4.57
2023-04-07T02:33:04.999Z,4.55
2023-04-07T02:35:35.851Z,4.52
2023-04-07T02:38:10.023Z,4.53
2023-04-07T02:40:41.424Z,4.52
2023-04-07T02:43:12.130Z,4.46
2023-04-07T02:45:45.709Z,4.51
2023-04-07T02:48:22.967Z,4.50
2023-04-07T02:50:54.203Z,4.47
2023-04-07T02:53:24.940Z,4.44
2023-04-07T02:55:55.966Z,4.39
2023-04-07T02:58:26.701Z,4.40
2023-04-07T03:00:57.372Z,4.40
2023-04-07T03:03:34.502Z,4.39
2023-04-07T03:06:13.461Z,4.32
2023-04-07T03:08:57.086Z,4.33
2023-04-07T03:11:27.593Z,4.33
2023-04-07T03:14:00.646Z,4.29
2023-04-07T03:16:34.289Z,4.26
2023-04-07T03:19:13.237Z,4.24
2023-04-07T03:21:47.988Z,4.21
2023-04-07T03:24:18.628Z,4.18
2023-04-07T03:26:51.600Z,4.14
2023-04-07T03:29:28.385Z,4.11
2023-04-07T03:31:59.134Z,4.08
2023-04-07T03:34:33.603Z,4.00
2023-04-07T03:37:04.296Z,3.94
2023-04-07T03:39:39.491Z,3.93
2023-04-07T03:42:23.793Z,3.90
2023-04-07T03:44:58.585Z,3.86
2023-04-07T03:47:29.659Z,3.86
2023-04-07T03:50:07.992Z,3.87
2023-04-07T03:52:47.398Z,3.86
2023-04-07T03:55:26.849Z,3.86
2023-04-07T03:58:02.257Z,3.86
2023-04-07T04:00:36.289Z,3.85
2023-04-07T04:03:13.241Z,3.81
2023-04-07T04:05:59.203Z,3.78
2023-04-07T04:08:33.875Z,3.75
2023-04-07T04:11:04.754Z,3.77
2023-04-07T04:13:41.221Z,3.77
2023-04-07T04:16:14.971Z,3.60
2023-04-07T04:18:46.899Z,3.76
2023-04-07T04:21:21.680Z,3.76
2023-04-07T04:23:52.574Z,3.74
2023-04-07T04:26:26.254Z,3.73
2023-04-07T04:29:00.979Z,3.69
2023-04-07T04:31:31.675Z,3.70
2023-04-07T04:34:03.729Z,3.69
2023-04-07T04:36:38.428Z,3.69
2023-04-07T04:39:10.267Z,3.70
2023-04-07T04:41:41.987Z,3.67
2023-04-07T04:44:14.391Z,3.68
2023-04-07T04:46:46.145Z,3.66
2023-04-07T04:49:19.132Z,3.64
2023-04-07T04:51:55.222Z,3.62
2023-04-07T04:54:25.913Z,3.63
2023-04-07T04:56:57.439Z,3.63
2023-04-07T04:59:28.188Z,3.67
2023-04-07T05:02:05.581Z,3.65
2023-04-07T05:04:36.878Z,3.65
2023-04-07T05:07:24.700Z,3.62
2023-04-07T05:09:56.316Z,3.40
2023-04-07T05:12:28.054Z,3.57
2023-04-07T05:15:03.039Z,3.58
2023-04-07T05:17:34.233Z,3.42
2023-04-07T05:20:08.161Z,3.59
2023-04-07T05:22:44.379Z,3.63
2023-04-07T05:25:17.791Z,3.69
2023-04-07T05:27:50.676Z,3.54
2023-04-07T05:30:22.285Z,3.73
2023-04-07T05:32:52.947Z,3.78
2023-04-07T05:35:36.660Z,3.85
2023-04-07T05:38:14.840Z,3.86
2023-04-07T05:40:46.499Z,3.89
2023-04-07T05:43:24.146Z,4.18
2023-04-07T05:45:55.573Z,5.02
2023-04-07T05:48:29.720Z,5.24
2023-04-07T05:51:00.900Z,5.54
2023-04-07T05:53:34.418Z,5.84
2023-04-07T05:56:05.648Z,6.04
2023-04-07T05:58:48.720Z,5.99
2023-04-07T06:01:20.629Z,5.95
2023-04-07T06:03:52.398Z,5.60
2023-04-07T06:06:26.538Z,5.62
2023-04-07T06:08:59.988Z,5.60
2023-04-07T06:11:30.606Z,5.48
2023-04-07T06:14:01.575Z,5.44
2023-04-07T06:16:32.183Z,5.50
2023-04-07T06:19:02.737Z,5.58
2023-04-07T06:21:33.440Z,5.55
2023-04-07T06:24:06.770Z,5.55
2023-04-07T06:26:39.216Z,5.53
2023-04-07T06:29:10.137Z,5.54
2023-04-07T06:31:41.270Z,5.57
2023-04-07T06:34:15.311Z,5.60
2023-04-07T06:36:46.732Z,5.66
2023-04-07T06:39:20.224Z,5.70
2023-04-07T06:41:50.827Z,5.80
2023-04-07T06:44:21.511Z,5.75
2023-04-07T06:46:53.535Z,5.61
2023-04-07T06:49:24.191Z,5.55
2023-04-07T06:51:55.091Z,5.42
2023-04-07T06:54:28.285Z,5.43
2023-04-07T06:56:58.930Z,5.36
2023-04-07T06:59:29.544Z,5.43
2023-04-07T07:02:00.329Z,5.56
2023-04-07T07:04:31.146Z,5.68
2023-04-07T07:07:01.851Z,5.82
2023-04-07T07:09:37.363Z,5.96
2023-04-07T07:12:08.620Z,6.12
2023-04-07T07:14:39.397Z,6.20
2023-04-07T07:17:10.030Z,6.16
2023-04-07T07:19:40.970Z,6.16
2023-04-07T07:22:11.729Z,6.39
2023-04-07T07:24:44.928Z,6.44
2023-04-07T07:27:16.177Z,6.47
2023-04-07T07:29:47.372Z,6.56
2023-04-07T07:32:17.983Z,6.64
2023-04-07T07:34:48.578Z,6.72
2023-04-07T07:37:19.153Z,6.85
2023-04-07T07:39:52.756Z,6.91
2023-04-07T07:42:23.366Z,7.08
2023-04-07T07:44:54.166Z,7.18
2023-04-07T07:47:25.200Z,7.26
2023-04-07T07:49:56.042Z,7.18
2023-04-07T07:52:27.293Z,7.32
2023-04-07T07:55:04.312Z,7.40
2023-04-07T07:57:35.070Z,7.45
2023-04-07T08:00:06.125Z,7.43
2023-04-07T08:02:44.096Z,7.50
2023-04-07T08:05:14.937Z,7.60
2023-04-07T08:07:47.085Z,7.76
2023-04-07T08:10:20.554Z,7.80
2023-04-07T08:12:51.203Z,7.86
2023-04-07T08:15:22.062Z,7.92
2023-04-07T08:17:54.687Z,7.95
2023-04-07T08:20:26.836Z,8.10
2023-04-07T08:22:57.459Z,8.26
2023-04-07T08:25:31.046Z,8.40
2023-04-07T08:28:01.770Z,8.43
2023-04-07T08:30:32.480Z,8.47
2023-04-07T08:33:03.247Z,8.59
2023-04-07T08:35:34.015Z,8.69
2023-04-07T08:38:05.996Z,8.66
2023-04-07T08:40:39.269Z,8.68
2023-04-07T08:43:13.454Z,8.69
2023-04-07T08:45:45.308Z,8.76
2023-04-07T08:48:19.863Z,8.79
2023-04-07T08:50:54.652Z,8.81
2023-04-07T08:53:30.400Z,8.93
2023-04-07T08:56:04.804Z,9.11
2023-04-07T08:58:35.619Z,9.23
2023-04-07T09:01:08.767Z,9.34
2023-04-07T09:03:39.998Z,9.37
2023-04-07T09:06:11.048Z,9.44
2023-04-07T09:08:41.775Z,9.50
2023-04-07T09:11:15.318Z,9.67
2023-04-07T09:13:46.318Z,9.80
2023-04-07T09:16:17.603Z,9.97
2023-04-07T09:18:48.492Z,10.09
2023-04-07T09:21:19.216Z,10.18
2023-04-07T09:23:50.804Z,10.29
2023-04-07T09:26:26.395Z,10.37
2023-04-07T09:28:58.588Z,10.41
2023-04-07T09:31:48.337Z,10.58
2023-04-07T09:34:29.679Z,10.66
2023-04-07T09:37:01.592Z,10.69
2023-04-07T09:39:32.422Z,10.72
2023-04-07T09:42:10.099Z,10.82
2023-04-07T09:44:43.990Z,10.88
2023-04-07T09:47:15.080Z,10.82
2023-04-07T09:49:57.068Z,10.79
2023-04-07T09:52:49.717Z,10.84
2023-04-07T09:55:22.032Z,10.93
2023-04-07T09:57:56.275Z,11.00
2023-04-07T10:00:26.757Z,11.07
2023-04-07T10:02:58.353Z,11.10
2023-04-07T10:05:30.837Z,11.27
2023-04-07T10:08:02.232Z,11.39
2023-04-07T10:10:34.202Z,11.49
2023-04-07T10:13:08.165Z,11.66
2023-04-07T10:15:39.288Z,11.72
2023-04-07T10:18:11.401Z,11.70
2023-04-07T10:20:43.547Z,11.83
2023-04-07T10:23:22.387Z,11.88
2023-04-07T10:25:56.795Z,11.89
2023-04-07T10:28:31.785Z,11.82
2023-04-07T10:31:02.917Z,11.71
2023-04-07T10:33:49.527Z,11.84
2023-04-07T10:36:21.012Z,11.94
2023-04-07T10:39:25.308Z,12.06
2023-04-07T10:41:56.119Z,11.91
2023-04-07T10:44:53.597Z,11.97
2023-04-07T10:47:24.210Z,12.00
2023-04-07T10:50:20.124Z,12.00
2023-04-07T10:52:52.697Z,11.98
2023-04-07T10:55:34.618Z,12.12
2023-04-07T10:58:29.503Z,12.12
2023-04-07T11:01:24.013Z,12.08
2023-04-07T11:04:05.021Z,12.06
2023-04-07T11:06:35.851Z,12.22
2023-04-07T11:09:06.809Z,12.22
2023-04-07T11:11:43.106Z,12.34
2023-04-07T11:14:13.894Z,12.27
2023-04-07T11:16:47.578Z,12.28
2023-04-07T11:19:18.766Z,12.22
2023-04-07T11:21:49.469Z,12.12
2023-04-07T11:24:35.177Z,12.28
2023-04-07T11:27:06.790Z,12.34
2023-04-07T11:29:37.837Z,12.48
2023-04-07T11:32:11.443Z,12.54
2023-04-07T11:34:42.876Z,12.66
2023-04-07T11:37:23.400Z,12.71
2023-04-07T11:39:57.174Z,12.82
2023-04-07T11:42:37.504Z,12.81
2023-04-07T11:45:09.548Z,12.89
2023-04-07T11:47:43.828Z,12.94
2023-04-07T11:50:14.618Z,12.87
2023-04-07T11:52:45.569Z,12.90
2023-04-07T11:55:24.406Z,13.00
2023-04-07T11:57:55.567Z,12.83
2023-04-07T12:00:26.554Z,12.78
2023-04-07T12:02:59.922Z,12.99
2023-04-07T12:05:45.486Z,12.97
2023-04-07T12:08:16.931Z,13.05
2023-04-07T12:10:48.595Z,13.11
2023-04-07T12:13:19.701Z,13.15
2023-04-07T12:15:50.730Z,13.20
2023-04-07T12:18:25.299Z,13.23
2023-04-07T12:20:56.256Z,13.23
2023-04-07T12:23:26.978Z,13.23
2023-04-07T12:25:57.502Z,13.17
2023-04-07T12:28:28.302Z,13.22
2023-04-07T12:30:59.011Z,13.12
2023-04-07T12:33:32.183Z,13.02
2023-04-07T12:36:03.103Z,13.09
2023-04-07T12:38:33.803Z,13.25
2023-04-07T12:41:04.324Z,13.21
2023-04-07T12:43:35.803Z,13.14
2023-04-07T12:46:06.711Z,13.33
2023-04-07T12:48:40.360Z,13.25
2023-04-07T12:51:11.230Z,13.30
2023-04-07T12:53:42.008Z,13.27
2023-04-07T12:56:14.265Z,13.17
2023-04-07T12:58:44.849Z,13.37
2023-04-07T13:01:15.570Z,13.48
2023-04-07T13:03:49.095Z,13.31
2023-04-07T13:06:20.245Z,13.40
2023-04-07T13:08:51.032Z,13.45
2023-04-07T13:11:22.057Z,13.52
2023-04-07T13:13:54.875Z,13.50
2023-04-07T13:16:26.688Z,13.55
2023-04-07T13:18:59.982Z,13.57
2023-04-07T13:24:04.190Z,13.64
2023-04-07T13:26:34.774Z,13.78
2023-04-07T13:29:05.442Z,13.77
2023-04-07T13:31:36.165Z,13.63
2023-04-07T13:34:09.491Z,13.56
2023-04-07T13:36:40.381Z,13.55
2023-04-07T13:39:11.361Z,13.38
2023-04-07T13:41:41.972Z,13.48
2023-04-07T13:44:12.801Z,13.50
2023-04-07T13:46:43.936Z,13.67
2023-04-07T13:49:17.172Z,13.81
2023-04-07T13:51:47.791Z,13.87
2023-04-07T13:54:19.669Z,13.83
2023-04-07T13:56:51.344Z,13.73
2023-04-07T13:59:21.937Z,13.69
2023-04-07T14:01:52.713Z,13.59
2023-04-07T14:04:26.170Z,13.56
2023-04-07T14:06:57.362Z,13.58
2023-04-07T14:09:27.845Z,13.47
2023-04-07T14:11:58.552Z,13.67
2023-04-07T14:14:29.102Z,13.67
2023-04-07T14:16:59.788Z,13.72
2023-04-07T14:19:33.696Z,13.69
2023-04-07T14:22:04.284Z,13.67
2023-04-07T14:24:34.951Z,13.63
2023-04-07T14:27:05.802Z,13.61
2023-04-07T14:29:36.725Z,13.59
2023-04-07T14:32:07.434Z,13.56
2023-04-07T14:34:40.646Z,13.52
2023-04-07T14:37:11.986Z,13.47
2023-04-07T14:39:48.458Z,13.69
2023-04-07T14:42:26.765Z,13.69
2023-04-07T14:44:57.337Z,13.61
2023-04-07T14:47:28.316Z,13.62
2023-04-07T14:50:01.664Z,13.73
2023-04-07T14:52:32.665Z,13.69
2023-04-07T14:55:03.496Z,13.57
2023-04-07T14:57:34.224Z,13.48
2023-04-07T15:00:07.615Z,13.54
2023-04-07T15:02:38.842Z,13.49
2023-04-07T15:05:13.726Z,13.47
2023-04-07T15:07:46.049Z,13.45
2023-04-07T15:10:17.362Z,13.39
2023-04-07T15:12:48.932Z,13.23
2023-04-07T15:15:19.949Z,13.62
2023-04-07T15:17:50.677Z,13.50
2023-04-07T15:20:24.064Z,13.49
2023-04-07T15:22:54.682Z,13.57
2023-04-07T15:25:25.772Z,13.51
2023-04-07T15:27:56.570Z,13.57
2023-04-07T15:30:27.611Z,13.54
2023-04-07T15:33:01.757Z,13.31
2023-04-07T15:35:34.604Z,13.32
2023-04-07T15:38:05.202Z,13.31
2023-04-07T15:40:39.187Z,13.28
2023-04-07T15:43:11.360Z,13.16
2023-04-07T15:45:45.135Z,13.16
2023-04-07T15:48:16.066Z,13.11
2023-04-07T15:50:49.805Z,13.09
2023-04-07T15:53:20.660Z,13.03
2023-04-07T15:55:51.431Z,13.06
2023-04-07T15:58:22.158Z,13.18
2023-04-07T16:00:52.939Z,13.21
2023-04-07T16:03:23.660Z,13.21
2023-04-07T16:05:57.292Z,13.14
2023-04-07T16:08:28.090Z,13.08
2023-04-07T16:10:58.769Z,13.04
2023-04-07T16:13:29.443Z,12.96
2023-04-07T16:16:00.714Z,12.93
2023-04-07T16:18:31.555Z,12.86
2023-04-07T16:21:04.836Z,12.83
2023-04-07T16:23:35.454Z,12.76
2023-04-07T16:26:06.649Z,12.69
2023-04-07T16:28:37.866Z,12.63
2023-04-07T16:31:09.018Z,12.60
2023-04-07T16:33:39.669Z,12.61
2023-04-07T16:36:13.301Z,12.56
2023-04-07T16:38:43.907Z,12.51
2023-04-07T16:41:14.686Z,12.42
2023-04-07T16:43:45.842Z,12.37
2023-04-07T16:46:16.766Z,12.32
2023-04-07T16:48:47.909Z,12.29
2023-04-07T16:51:22.930Z,12.27
2023-04-07T16:53:53.745Z,12.20
2023-04-07T16:56:26.206Z,12.17
2023-04-07T16:58:56.879Z,12.12
2023-04-07T17:01:31.076Z,12.05
2023-04-07T17:04:01.482Z,12.00
2023-04-07T17:06:34.880Z,11.91
2023-04-07T17:09:05.556Z,11.79
2023-04-07T17:11:36.116Z,11.85
2023-04-07T17:14:06.745Z,11.82
2023-04-07T17:16:37.754Z,11.77
2023-04-07T17:19:08.587Z,11.50
2023-04-07T17:21:42.269Z,11.63
2023-04-07T17:24:24.091Z,11.57
2023-04-07T17:26:55.069Z,11.46
2023-04-07T17:29:29.205Z,11.37
2023-04-07T17:32:00.127Z,11.38
2023-04-07T17:34:31.043Z,11.29
2023-04-07T17:37:04.301Z,11.23
2023-04-07T17:39:34.939Z,11.15
2023-04-07T17:42:05.481Z,11.14
2023-04-07T17:44:36.099Z,11.12
2023-04-07T17:47:06.734Z,11.05
2023-04-07T17:49:37.537Z,10.95
2023-04-07T17:52:11.498Z,10.86
2023-04-07T17:54:42.168Z,10.73
2023-04-07T17:57:14.645Z,10.63
2023-04-07T17:59:45.599Z,10.52
2023-04-07T18:02:16.620Z,10.42
2023-04-07T18:04:47.953Z,10.31
2023-04-07T18:07:21.554Z,10.26
2023-04-07T18:09:52.536Z,10.12
2023-04-07T18:12:23.000Z,10.02
2023-04-07T18:14:53.753Z,9.92
2023-04-07T18:17:24.495Z,9.78
2023-04-07T18:19:55.033Z,9.69
2023-04-07T18:22:30.073Z,9.59
2023-04-07T18:25:01.248Z,9.51
2023-04-07T18:27:32.287Z,9.38
2023-04-07T18:30:02.917Z,9.27
2023-04-07T18:32:33.759Z,9.24
2023-04-07T18:35:04.447Z,9.19
2023-04-07T18:37:37.915Z,9.12
2023-04-07T18:40:10.317Z,9.07
2023-04-07T18:42:41.776Z,9.02
2023-04-07T18:45:13.425Z,8.97
2023-04-07T18:47:44.115Z,8.91
2023-04-07T18:50:14.871Z,8.86
2023-04-07T18:52:48.319Z,8.82
2023-04-07T18:55:20.878Z,8.76
2023-04-07T18:57:52.089Z,8.73
2023-04-07T19:00:22.839Z,8.70
2023-04-07T19:02:53.613Z,8.65
2023-04-07T19:05:25.843Z,8.66
2023-04-07T19:07:59.329Z,8.62
2023-04-07T19:10:30.027Z,8.58
2023-04-07T19:13:00.866Z,8.54
2023-04-07T19:15:34.292Z,8.48
2023-04-07T19:18:05.289Z,8.41
2023-04-07T19:20:36.290Z,8.38
2023-04-07T19:23:09.577Z,8.32
2023-04-07T19:25:44.375Z,8.14
2023-04-07T19:28:16.536Z,8.20
2023-04-07T19:30:47.478Z,8.16
2023-04-07T19:33:18.397Z,8.11
2023-04-07T19:35:49.208Z,8.03
2023-04-07T19:38:22.509Z,8.01
2023-04-07T19:40:53.399Z,7.96
2023-04-07T19:43:24.064Z,7.92
2023-04-07T19:45:54.847Z,7.90
2023-04-07T19:48:25.631Z,7.84
2023-04-07T19:50:56.444Z,7.81
2023-04-07T19:53:29.701Z,7.80
2023-04-07T19:56:00.401Z,7.78
2023-04-07T19:58:31.237Z,7.76
2023-04-07T20:01:04.337Z,7.77
2023-04-07T20:03:35.434Z,7.77
2023-04-07T20:06:06.403Z,7.79
2023-04-07T20:08:39.737Z,7.80
2023-04-07T20:11:13.232Z,7.73
2023-04-07T20:13:44.600Z,7.57
2023-04-07T20:16:15.460Z,7.70
2023-04-07T20:18:46.582Z,7.53
2023-04-07T20:21:17.225Z,7.57
2023-04-07T20:23:50.415Z,7.56
2023-04-07T20:26:22.348Z,7.54
2023-04-07T20:28:53.043Z,7.50
2023-04-07T20:31:23.912Z,7.48
2023-04-07T20:33:54.896Z,7.47
2023-04-07T20:36:26.089Z,7.46
2023-04-07T20:38:59.793Z,7.37
2023-04-07T20:41:30.804Z,7.35
2023-04-07T20:44:01.554Z,7.28
2023-04-07T20:46:32.699Z,7.22
2023-04-07T20:49:04.114Z,7.17
2023-04-07T20:51:35.156Z,7.15
2023-04-07T20:54:08.482Z,7.09
2023-04-07T20:56:39.159Z,7.08
2023-04-07T20:59:09.859Z,7.06
2023-04-07T21:01:40.771Z,7.06
2023-04-07T21:04:12.792Z,7.04
2023-04-07T21:06:44.257Z,7.02
2023-04-07T21:09:18.042Z,7.01
2023-04-07T21:11:48.925Z,6.96
2023-04-07T21:14:19.564Z,6.96
2023-04-07T21:16:50.279Z,6.88
2023-04-07T21:19:20.979Z,6.84
2023-04-07T21:21:51.667Z,6.82
2023-04-07T21:24:24.990Z,6.83
2023-04-07T21:26:56.767Z,6.77
2023-04-07T21:29:27.531Z,6.73
2023-04-07T21:31:58.246Z,6.72
2023-04-07T21:34:29.699Z,6.73
2023-04-07T21:37:00.233Z,6.73
2023-04-07T21:39:33.404Z,6.71
2023-04-07T21:42:04.362Z,6.71
2023-04-07T21:44:34.871Z,6.67
2023-04-07T21:47:05.436Z,6.65
2023-04-07T21:49:38.832Z,6.65
2023-04-07T21:52:09.849Z,6.60
2023-04-07T21:54:43.543Z,6.65
2023-04-07T21:57:14.393Z,6.61
2023-04-07T21:59:45.066Z,6.59
2023-04-07T22:02:15.610Z,6.61
2023-04-07T22:04:46.470Z,6.57
2023-04-07T22:07:17.216Z,6.63
2023-04-07T22:09:50.650Z,6.59
2023-04-07T22:12:21.392Z,6.60
2023-04-07T22:14:52.108Z,6.57
2023-04-07T22:17:22.677Z,6.50
2023-04-07T22:19:53.255Z,6.51
2023-04-07T22:22:23.872Z,6.60
2023-04-07T22:24:57.111Z,6.65
2023-04-07T22:27:28.026Z,6.56
2023-04-07T22:29:58.640Z,6.56
2023-04-07T22:32:29.239Z,6.57
2023-04-07T22:35:00.844Z,6.57
2023-04-07T22:37:31.802Z,6.61
2023-04-07T22:40:05.048Z,6.63
2023-04-07T22:42:35.681Z,6.61
2023-04-07T22:45:07.014Z,6.59
2023-04-07T22:47:38.096Z,6.59
2023-04-07T22:50:10.170Z,6.63
2023-04-07T22:52:40.860Z,6.57
2023-04-07T22:55:14.284Z,6.56
2023-04-07T22:57:45.053Z,6.54
2023-04-07T23:00:16.262Z,6.51
2023-04-07T23:02:46.918Z,6.48
2023-04-07T23:05:17.555Z,6.49
2023-04-07T23:07:48.314Z,6.52
2023-04-07T23:10:21.531Z,6.47
2023-04-07T23:12:54.924Z,6.47
2023-04-07T23:15:25.778Z,6.50
2023-04-07T23:17:56.724Z,6.48
2023-04-07T23:20:27.433Z,6.44
2023-04-07T23:22:58.181Z,6.43
2023-04-07T23:25:31.540Z,6.42
2023-04-07T23:28:02.128Z,6.45
2023-04-07T23:30:32.709Z,6.36
2023-04-07T23:33:03.173Z,6.42
2023-04-07T23:35:33.938Z,6.45
2023-04-07T23:38:04.724Z,6.49
2023-04-07T23:40:37.985Z,6.48
2023-04-07T23:43:08.916Z,6.47
2023-04-07T23:45:39.847Z,6.50
2023-04-07T23:48:10.775Z,6.47
2023-04-07T23:50:41.947Z,6.45
2023-04-07T23:53:12.659Z,6.38
2023-04-07T23:55:45.810Z,6.32
2023-04-07T23:58:16.446Z,6.29
